createdAt,value
2019-04-26T00:02:20.520Z,10.85
2019-04-26T00:04:49.269Z,10.75
2019-04-26T00:07:17.816Z,10.69
2019-04-26T00:09:47.769Z,10.60
2019-04-26T00:12:20.591Z,10.51
2019-04-26T00:14:51.053Z,10.44
2019-04-26T00:17:23.859Z,10.36
2019-04-26T00:19:52.637Z,10.35
2019-04-26T00:22:21.419Z,10.42
2019-04-26T00:24:50.042Z,10.51
2019-04-26T00:27:19.044Z,10.48
2019-04-26T00:29:47.541Z,10.43
2019-04-26T00:32:17.207Z,10.37
2019-04-26T00:34:45.771Z,10.30
2019-04-26T00:37:14.246Z,10.24
2019-04-26T00:39:42.782Z,10.10
2019-04-26T00:42:12.183Z,10.03
2019-04-26T00:44:41.728Z,10.04
2019-04-26T00:47:13.615Z,10.10
2019-04-26T00:49:43.849Z,9.98
2019-04-26T00:52:15.663Z,9.97
2019-04-26T00:54:45.344Z,10.00
2019-04-26T00:57:15.959Z,10.07
2019-04-26T00:59:44.681Z,10.14
2019-04-26T01:02:18.624Z,10.01
2019-04-26T01:04:47.170Z,9.90
2019-04-26T01:07:15.740Z,9.95
2019-04-26T01:09:44.211Z,10.04
2019-04-26T01:12:12.742Z,10.08
2019-04-26T01:14:41.213Z,10.05
2019-04-26T01:17:09.773Z,10.02
2019-04-26T01:19:39.290Z,9.99
2019-04-26T01:22:10.873Z,9.93
2019-04-26T01:24:42.419Z,9.93
2019-04-26T01:27:12.438Z,9.95
2019-04-26T01:29:42.173Z,9.94
2019-04-26T01:32:12.789Z,9.73
2019-04-26T01:34:43.370Z,9.67
2019-04-26T01:37:12.541Z,9.68
2019-04-26T01:39:45.860Z,9.69
2019-04-26T01:42:26.310Z,9.73
2019-04-26T01:44:59.573Z,9.67
2019-04-26T01:47:28.640Z,9.67
2019-04-26T01:49:57.544Z,9.70
2019-04-26T01:52:26.360Z,9.71
2019-04-26T01:54:55.223Z,9.70
2019-04-26T01:57:27.283Z,9.69
2019-04-26T01:59:59.105Z,9.69
2019-04-26T02:02:32.089Z,9.68
2019-04-26T02:05:02.435Z,9.60
2019-04-26T02:07:41.442Z,9.59
2019-04-26T02:10:15.906Z,9.60
2019-04-26T02:12:46.564Z,9.52
2019-04-26T02:15:16.021Z,9.58
2019-04-26T02:17:45.940Z,9.52
2019-04-26T02:20:16.112Z,9.53
2019-04-26T02:22:49.363Z,9.48
2019-04-26T02:25:17.940Z,9.42
2019-04-26T02:27:46.581Z,9.38
2019-04-26T02:30:15.232Z,9.38
2019-04-26T02:32:43.896Z,9.38
2019-04-26T02:35:12.721Z,9.32
2019-04-26T02:37:41.767Z,9.28
2019-04-26T02:40:13.337Z,9.29
2019-04-26T02:42:43.841Z,9.28
2019-04-26T02:45:42.315Z,9.23
2019-04-26T02:48:18.267Z,9.27
2019-04-26T02:51:04.313Z,9.29
2019-04-26T02:53:41.678Z,9.32
2019-04-26T02:56:18.912Z,9.25
2019-04-26T02:58:59.295Z,9.21
2019-04-26T03:01:31.668Z,9.20
2019-04-26T03:04:00.417Z,9.17
2019-04-26T03:06:33.873Z,9.16
2019-04-26T03:09:05.862Z,9.18
2019-04-26T03:11:38.969Z,9.22
2019-04-26T03:14:12.614Z,9.24
2019-04-26T03:16:45.788Z,9.19
2019-04-26T03:19:19.072Z,9.17
2019-04-26T03:22:17.771Z,9.18
2019-04-26T03:25:04.387Z,9.14
2019-04-26T03:27:50.542Z,9.15
2019-04-26T03:30:23.689Z,9.15
2019-04-26T03:32:58.537Z,9.08
2019-04-26T03:36:01.809Z,9.11
2019-04-26T03:38:52.045Z,9.05
2019-04-26T03:42:05.561Z,9.01
2019-04-26T03:44:41.096Z,8.94
2019-04-26T03:47:12.949Z,8.85
2019-04-26T03:49:47.448Z,8.80
2019-04-26T03:52:44.100Z,8.75
2019-04-26T03:55:30.130Z,8.75
2019-04-26T03:58:12.058Z,8.70
2019-04-26T04:00:47.060Z,8.58
2019-04-26T04:03:26.488Z,8.54
2019-04-26T04:05:56.986Z,8.52
2019-04-26T04:08:49.324Z,8.52
2019-04-26T04:11:23.673Z,8.52
2019-04-26T04:13:55.286Z,8.55
2019-04-26T04:16:30.151Z,8.59
2019-04-26T04:19:07.577Z,8.56
2019-04-26T04:22:01.576Z,8.51
2019-04-26T04:24:35.882Z,8.46
2019-04-26T04:27:19.151Z,8.46
2019-04-26T04:29:55.620Z,8.47
2019-04-26T04:32:26.872Z,8.46
2019-04-26T04:34:58.155Z,8.46
2019-04-26T04:37:29.712Z,8.45
2019-04-26T04:40:17.328Z,8.42
2019-04-26T04:42:56.214Z,8.42
2019-04-26T04:45:54.512Z,8.45
2019-04-26T04:48:36.195Z,8.44
2019-04-26T04:51:25.932Z,8.43
2019-04-26T04:54:09.417Z,8.39
2019-04-26T05:00:00.959Z,8.34
2019-04-26T05:02:54.927Z,8.27
2019-04-26T05:05:47.189Z,8.17
2019-04-26T05:08:24.719Z,8.04
2019-04-26T05:11:15.858Z,8.03
2019-04-26T05:13:47.852Z,7.88
2019-04-26T05:16:38.411Z,7.56
2019-04-26T05:19:38.365Z,7.39
2019-04-26T05:22:29.426Z,7.40
2019-04-26T05:25:21.687Z,7.48
2019-04-26T05:28:20.093Z,7.56
2019-04-26T05:31:02.026Z,7.65
2019-04-26T05:33:33.661Z,7.74
2019-04-26T05:36:09.633Z,7.71
2019-04-26T05:38:41.371Z,7.62
2019-04-26T05:41:30.242Z,7.55
2019-04-26T05:44:06.509Z,7.54
2019-04-26T05:46:45.564Z,7.54
2019-04-26T05:49:44.244Z,7.43
2019-04-26T05:52:48.301Z,7.33
2019-04-26T05:55:24.305Z,7.25
2019-04-26T05:58:09.211Z,7.13
2019-04-26T06:01:10.287Z,7.04
2019-04-26T06:04:17.362Z,7.00
2019-04-26T06:07:11.523Z,7.00
2019-04-26T06:10:11.465Z,6.95
2019-04-26T06:13:05.367Z,6.91
2019-04-26T06:15:52.947Z,6.90
2019-04-26T06:18:45.474Z,6.95
2019-04-26T06:21:25.577Z,6.88
2019-04-26T06:24:06.009Z,6.91
2019-04-26T06:27:12.140Z,6.89
2019-04-26T06:29:53.843Z,6.92
2019-04-26T06:32:36.205Z,6.86
2019-04-26T06:35:13.975Z,6.75
2019-04-26T06:38:02.029Z,6.60
2019-04-26T06:40:55.969Z,6.61
2019-04-26T06:43:32.705Z,6.64
2019-04-26T06:46:26.761Z,6.69
2019-04-26T06:49:16.979Z,6.66
2019-04-26T06:52:08.432Z,6.59
2019-04-26T06:54:51.472Z,6.54
2019-04-26T06:57:59.931Z,6.48
2019-04-26T07:01:05.432Z,6.39
2019-04-26T07:04:09.881Z,6.47
2019-04-26T07:06:44.483Z,6.48
2019-04-26T07:09:15.175Z,6.35
2019-04-26T07:11:48.367Z,6.28
2019-04-26T07:14:43.760Z,6.11
2019-04-26T07:17:23.983Z,5.98
2019-04-26T07:20:20.790Z,5.90
2019-04-26T07:23:02.176Z,5.88
2019-04-26T07:26:00.236Z,5.89
2019-04-26T07:29:06.898Z,5.81
2019-04-26T07:31:55.126Z,5.80
2019-04-26T07:34:44.617Z,5.75
2019-04-26T07:41:11.478Z,5.88
2019-04-26T07:44:22.779Z,5.75
2019-04-26T07:46:57.436Z,5.87
2019-04-26T07:49:51.404Z,5.97
2019-04-26T07:52:44.008Z,5.98
2019-04-26T07:55:30.468Z,5.91
2019-04-26T07:58:27.313Z,5.70
2019-04-26T08:01:38.043Z,5.68
2019-04-26T08:04:11.548Z,5.66
2019-04-26T08:06:45.130Z,5.64
2019-04-26T08:09:26.539Z,5.61
2019-04-26T08:11:53.916Z,5.73
2019-04-26T08:14:31.868Z,5.77
2019-04-26T08:17:16.625Z,5.70
2019-04-26T08:20:11.422Z,5.41
2019-04-26T08:22:43.881Z,5.49
2019-04-26T08:25:17.524Z,5.46
2019-04-26T08:27:47.071Z,5.41
2019-04-26T08:30:19.318Z,5.44
2019-04-26T08:33:02.191Z,5.46
2019-04-26T08:35:32.881Z,5.53
2019-04-26T08:38:08.083Z,5.52
2019-04-26T08:40:35.388Z,5.50
2019-04-26T08:43:22.932Z,5.50
2019-04-26T08:46:03.113Z,5.44
2019-04-26T08:48:32.506Z,5.49
2019-04-26T08:51:04.928Z,5.42
2019-04-26T08:53:36.611Z,5.40
2019-04-26T08:56:07.234Z,5.29
2019-04-26T08:58:38.851Z,5.30
2019-04-26T09:01:14.501Z,5.38
2019-04-26T09:04:03.961Z,5.29
2019-04-26T09:06:39.244Z,5.33
2019-04-26T09:09:24.004Z,5.44
2019-04-26T09:11:59.719Z,5.51
2019-04-26T09:14:30.342Z,5.47
2019-04-26T09:16:58.847Z,5.34
2019-04-26T09:19:30.551Z,5.37
2019-04-26T09:22:12.236Z,5.30
2019-04-26T09:24:31.169Z,5.28
2019-04-26T09:27:12.843Z,5.21
2019-04-26T09:30:11.498Z,5.25
2019-04-26T09:32:41.677Z,5.37
2019-04-26T09:35:11.242Z,5.43
2019-04-26T09:37:41.860Z,5.33
2019-04-26T09:40:19.739Z,5.39
2019-04-26T09:42:47.654Z,5.42
2019-04-26T09:45:34.711Z,5.37
2019-04-26T09:48:04.804Z,5.30
2019-04-26T09:50:40.992Z,5.28
2019-04-26T09:53:09.478Z,5.32
2019-04-26T09:55:38.140Z,5.32
2019-04-26T09:58:08.687Z,5.24
2019-04-26T10:00:37.403Z,5.29
2019-04-26T10:03:09.318Z,5.33
2019-04-26T10:05:36.185Z,5.36
2019-04-26T10:08:08.355Z,5.41
2019-04-26T10:10:36.405Z,5.44
2019-04-26T10:13:06.835Z,5.48
2019-04-26T10:15:42.979Z,5.46
2019-04-26T10:18:11.526Z,5.48
2019-04-26T10:20:39.989Z,5.48
2019-04-26T10:23:08.590Z,5.52
2019-04-26T10:25:37.025Z,5.53
2019-04-26T10:28:05.482Z,5.51
2019-04-26T10:30:38.373Z,5.50
2019-04-26T10:33:05.434Z,5.43
2019-04-26T10:35:38.163Z,5.35
2019-04-26T10:38:06.838Z,5.31
2019-04-26T10:40:35.990Z,5.29
2019-04-26T10:43:06.386Z,5.33
2019-04-26T10:45:34.861Z,5.42
2019-04-26T10:48:03.315Z,5.37
2019-04-26T10:50:33.044Z,5.32
2019-04-26T10:53:06.580Z,5.39
2019-04-26T10:55:46.389Z,5.40
2019-04-26T10:58:27.200Z,5.40
2019-04-26T11:00:57.385Z,5.47
2019-04-26T11:03:26.830Z,5.53
2019-04-26T11:05:55.471Z,5.49
2019-04-26T11:08:23.966Z,5.49
2019-04-26T11:10:52.441Z,5.42
2019-04-26T11:13:20.924Z,5.41
2019-04-26T11:15:49.497Z,5.45
2019-04-26T11:18:19.924Z,5.52
2019-04-26T11:20:48.314Z,5.60
2019-04-26T11:23:16.876Z,5.61
2019-04-26T11:25:45.442Z,5.51
2019-04-26T11:28:17.245Z,5.48
2019-04-26T11:30:44.254Z,5.46
2019-04-26T11:33:12.941Z,5.51
2019-04-26T11:35:41.422Z,5.58
2019-04-26T11:38:09.887Z,5.60
2019-04-26T11:40:38.332Z,5.60
2019-04-26T11:43:06.882Z,5.56
2019-04-26T11:45:35.410Z,5.57
2019-04-26T11:48:03.955Z,5.56
2019-04-26T11:50:32.418Z,5.55
2019-04-26T11:53:00.893Z,5.54
2019-04-26T11:55:31.521Z,5.54
2019-04-26T11:58:00.040Z,5.54
2019-04-26T12:00:32.965Z,5.60
2019-04-26T12:03:01.467Z,5.65
2019-04-26T12:05:43.260Z,5.66
2019-04-26T12:08:13.371Z,5.63
2019-04-26T12:10:44.478Z,5.64
2019-04-26T12:13:12.221Z,5.79
2019-04-26T12:15:43.706Z,5.89
2019-04-26T12:18:11.261Z,5.90
2019-04-26T12:20:39.753Z,5.87
2019-04-26T12:23:08.219Z,5.82
2019-04-26T12:25:38.729Z,5.85
2019-04-26T12:28:07.402Z,5.91
2019-04-26T12:30:36.022Z,5.92
2019-04-26T12:33:04.656Z,5.97
2019-04-26T12:35:33.139Z,6.00
2019-04-26T12:38:01.600Z,6.02
2019-04-26T12:40:30.106Z,6.11
2019-04-26T12:42:58.587Z,6.15
2019-04-26T12:45:40.777Z,6.04
2019-04-26T12:48:12.451Z,5.94
2019-04-26T12:50:41.148Z,5.86
2019-04-26T12:53:09.606Z,5.82
2019-04-26T12:55:38.138Z,5.77
2019-04-26T12:58:06.626Z,5.79
2019-04-26T13:00:37.452Z,5.73
2019-04-26T13:03:06.259Z,5.74
2019-04-26T13:05:34.787Z,5.85
2019-04-26T13:08:03.228Z,5.92
2019-04-26T13:10:35.552Z,5.99
2019-04-26T13:13:10.862Z,5.99
2019-04-26T13:16:04.782Z,5.96
2019-04-26T13:18:33.243Z,6.05
2019-04-26T13:21:03.091Z,6.08
2019-04-26T13:23:32.033Z,6.16
2019-04-26T13:26:01.564Z,6.24
2019-04-26T13:28:30.153Z,6.36
2019-04-26T13:30:58.679Z,6.41
2019-04-26T13:33:27.876Z,6.51
2019-04-26T13:36:04.619Z,6.55
2019-04-26T13:38:27.513Z,6.41
2019-04-26T13:40:59.579Z,6.33
2019-04-26T13:43:27.076Z,6.23
2019-04-26T13:46:13.847Z,6.22
2019-04-26T13:48:46.370Z,6.34
2019-04-26T13:51:28.332Z,6.51
2019-04-26T13:53:56.789Z,6.64
2019-04-26T13:56:25.247Z,6.70
2019-04-26T13:58:54.457Z,6.56
2019-04-26T14:01:24.770Z,6.55
2019-04-26T14:03:53.314Z,6.55
2019-04-26T14:06:21.869Z,6.67
2019-04-26T14:08:53.966Z,6.81
2019-04-26T14:11:27.909Z,6.96
2019-04-26T14:13:50.838Z,7.16
2019-04-26T14:16:21.172Z,7.25
2019-04-26T14:18:49.568Z,7.36
2019-04-26T14:21:18.152Z,7.53
2019-04-26T14:24:04.012Z,7.60
2019-04-26T14:26:41.475Z,7.71
2019-04-26T14:29:10.228Z,7.78
2019-04-26T14:31:38.715Z,7.88
2019-04-26T14:34:07.370Z,7.97
2019-04-26T14:36:35.911Z,8.13
2019-04-26T14:39:10.593Z,8.24
2019-04-26T14:41:40.101Z,8.21
2019-04-26T14:44:15.646Z,8.37
2019-04-26T14:46:48.758Z,8.44
2019-04-26T14:49:09.643Z,8.47
2019-04-26T14:51:40.544Z,8.61
2019-04-26T14:54:11.453Z,8.76
2019-04-26T14:56:51.502Z,8.83
2019-04-26T14:59:10.284Z,8.91
2019-04-26T15:01:55.907Z,8.90
2019-04-26T15:04:44.098Z,8.93
2019-04-26T15:07:12.775Z,9.01
2019-04-26T15:09:42.855Z,9.36
2019-04-26T15:12:12.489Z,9.75
2019-04-26T15:14:42.271Z,10.18
2019-04-26T15:17:12.286Z,10.39
2019-04-26T15:19:45.933Z,10.84
2019-04-26T15:22:12.234Z,11.05
2019-04-26T15:24:42.166Z,10.97
2019-04-26T15:27:10.783Z,10.63
2019-04-26T15:29:39.324Z,10.53
2019-04-26T15:32:07.955Z,10.60
2019-04-26T15:34:51.367Z,10.92
2019-04-26T15:37:25.008Z,11.32
2019-04-26T15:39:56.782Z,11.72
2019-04-26T15:42:40.640Z,11.86
2019-04-26T15:45:11.006Z,11.75
2019-04-26T15:47:58.803Z,12.08
2019-04-26T15:50:31.664Z,12.44
2019-04-26T15:53:00.127Z,12.72
2019-04-26T15:55:33.838Z,12.69
2019-04-26T15:58:02.686Z,12.67
2019-04-26T16:00:32.763Z,12.92
2019-04-26T16:03:03.864Z,12.65
2019-04-26T16:05:31.289Z,12.27
2019-04-26T16:08:01.842Z,12.06
2019-04-26T16:10:37.066Z,12.11
2019-04-26T16:13:15.797Z,12.25
2019-04-26T16:15:32.247Z,12.16
2019-04-26T16:18:03.921Z,11.92
2019-04-26T16:20:37.470Z,11.75
2019-04-26T16:23:06.208Z,11.70
2019-04-26T16:25:34.336Z,11.56
2019-04-26T16:28:19.325Z,11.46
2019-04-26T16:30:49.423Z,11.37
2019-04-26T16:33:28.519Z,11.37
2019-04-26T16:35:57.391Z,11.34
2019-04-26T16:38:33.511Z,11.39
2019-04-26T16:41:03.304Z,11.41
2019-04-26T16:43:37.692Z,11.37
2019-04-26T16:46:02.395Z,11.36
2019-04-26T16:48:30.804Z,11.25
2019-04-26T16:51:03.677Z,11.22
2019-04-26T16:53:43.731Z,11.16
2019-04-26T16:55:59.971Z,11.08
2019-04-26T16:58:30.923Z,11.02
2019-04-26T17:00:58.788Z,10.92
2019-04-26T17:03:27.461Z,10.87
2019-04-26T17:06:04.623Z,10.80
2019-04-26T17:08:32.241Z,10.79
2019-04-26T17:11:08.260Z,10.76
2019-04-26T17:13:48.383Z,10.71
2019-04-26T17:16:12.857Z,10.61
2019-04-26T17:18:42.670Z,10.52
2019-04-26T17:21:13.339Z,10.47
2019-04-26T17:24:05.944Z,10.49
2019-04-26T17:26:36.332Z,10.46
2019-04-26T17:29:03.650Z,10.39
2019-04-26T17:31:33.597Z,10.34
2019-04-26T17:34:03.285Z,10.31
2019-04-26T17:36:34.405Z,10.27
2019-04-26T17:39:03.698Z,10.22
2019-04-26T17:41:33.259Z,10.22
2019-04-26T17:44:08.282Z,10.23
2019-04-26T17:46:32.605Z,10.21
2019-04-26T17:49:01.248Z,10.12
2019-04-26T17:51:32.460Z,9.88
2019-04-26T17:54:21.130Z,9.66
2019-04-26T17:56:31.501Z,9.51
2019-04-26T17:59:03.166Z,9.42
2019-04-26T18:01:44.374Z,9.40
2019-04-26T18:04:01.499Z,9.32
2019-04-26T18:06:30.223Z,9.21
2019-04-26T18:08:58.750Z,9.13
2019-04-26T18:11:27.384Z,9.10
2019-04-26T18:13:56.013Z,9.15
2019-04-26T18:16:29.176Z,9.14
2019-04-26T18:18:59.265Z,9.07
2019-04-26T18:21:45.483Z,8.95
2019-04-26T18:24:14.013Z,8.89
2019-04-26T18:26:42.519Z,8.84
2019-04-26T18:29:13.030Z,8.75
2019-04-26T18:31:43.737Z,8.79
2019-04-26T18:34:12.826Z,8.75
2019-04-26T18:36:43.005Z,8.74
2019-04-26T18:39:11.581Z,8.73
2019-04-26T18:41:40.173Z,8.69
2019-04-26T18:44:08.990Z,8.63
2019-04-26T18:46:48.206Z,8.57
2019-04-26T18:49:22.525Z,8.58
2019-04-26T18:51:48.494Z,8.56
2019-04-26T18:54:18.910Z,8.48
2019-04-26T18:56:51.459Z,8.32
2019-04-26T18:59:19.993Z,8.29
2019-04-26T19:01:48.671Z,8.27
2019-04-26T19:04:17.256Z,8.28
2019-04-26T19:06:45.748Z,8.24
2019-04-26T19:09:15.640Z,8.20
2019-04-26T19:11:48.719Z,8.18
2019-04-26T19:14:16.014Z,8.22
2019-04-26T19:16:50.606Z,8.19
2019-04-26T19:19:25.368Z,8.16
2019-04-26T19:21:54.566Z,8.14
2019-04-26T19:24:23.188Z,8.12
2019-04-26T19:26:51.774Z,8.09
2019-04-26T19:29:27.016Z,8.06
2019-04-26T19:31:52.260Z,8.03
2019-04-26T19:34:21.932Z,7.97
2019-04-26T19:36:52.330Z,7.95
2019-04-26T19:39:31.700Z,7.95
2019-04-26T19:41:57.327Z,7.87
2019-04-26T19:44:24.046Z,7.85
2019-04-26T19:46:58.091Z,7.82
2019-04-26T19:49:40.197Z,7.86
2019-04-26T19:52:13.138Z,7.85
2019-04-26T19:54:55.110Z,7.87
2019-04-26T19:57:25.374Z,7.85
2019-04-26T19:59:53.850Z,7.87
2019-04-26T20:02:22.434Z,7.82
2019-04-26T20:04:51.429Z,7.85
2019-04-26T20:07:19.986Z,7.84
2019-04-26T20:09:48.474Z,7.81
2019-04-26T20:12:17.004Z,7.82
2019-04-26T20:14:50.981Z,7.84
2019-04-26T20:17:19.880Z,7.85
2019-04-26T20:19:47.635Z,7.88
2019-04-26T20:22:16.270Z,7.85
2019-04-26T20:24:48.538Z,7.81
2019-04-26T20:27:20.382Z,7.79
2019-04-26T20:29:47.426Z,7.77
2019-04-26T20:32:24.003Z,7.80
2019-04-26T20:34:56.910Z,7.83
2019-04-26T20:37:25.817Z,7.83
2019-04-26T20:40:15.489Z,7.80
2019-04-26T20:42:24.555Z,7.79
2019-04-26T20:44:53.802Z,7.80
2019-04-26T20:47:22.503Z,7.80
2019-04-26T20:50:00.793Z,7.84
2019-04-26T20:52:24.784Z,7.87
2019-04-26T20:54:54.052Z,7.85
2019-04-26T20:57:21.979Z,7.82
2019-04-26T20:59:52.050Z,7.77
2019-04-26T21:02:24.646Z,7.77
2019-04-26T21:04:51.546Z,7.72
2019-04-26T21:07:21.784Z,7.70
2019-04-26T21:09:50.436Z,7.70
2019-04-26T21:12:19.173Z,7.75
2019-04-26T21:14:47.804Z,7.84
2019-04-26T21:17:19.462Z,7.89
2019-04-26T21:19:49.912Z,7.81
2019-04-26T21:22:18.322Z,7.81
2019-04-26T21:24:58.315Z,7.83
2019-04-26T21:27:29.889Z,7.83
2019-04-26T21:30:04.185Z,7.87
2019-04-26T21:32:37.690Z,7.93
2019-04-26T21:35:08.935Z,7.97
2019-04-26T21:37:39.046Z,7.99
2019-04-26T21:40:26.131Z,7.99
2019-04-26T21:42:59.343Z,7.99
2019-04-26T21:45:28.228Z,7.99
2019-04-26T21:47:55.063Z,8.01
2019-04-26T21:50:23.563Z,7.98
2019-04-26T21:52:54.008Z,7.93
2019-04-26T21:55:26.579Z,7.91
2019-04-26T21:57:53.803Z,7.91
2019-04-26T22:00:24.884Z,7.80
2019-04-26T22:02:53.557Z,7.69
2019-04-26T22:05:22.215Z,7.66
2019-04-26T22:07:50.676Z,7.65
2019-04-26T22:10:20.883Z,7.68
2019-04-26T22:12:49.455Z,7.69
2019-04-26T22:15:37.520Z,7.59
2019-04-26T22:18:14.883Z,7.46
2019-04-26T22:20:50.918Z,7.29
2019-04-26T22:23:21.351Z,7.28
2019-04-26T22:25:50.502Z,7.28
2019-04-26T22:28:18.972Z,7.27
2019-04-26T22:30:47.456Z,7.29
2019-04-26T22:33:15.973Z,7.27
2019-04-26T22:35:44.546Z,7.26
2019-04-26T22:38:13.025Z,7.32
2019-04-26T22:40:41.495Z,7.35
2019-04-26T22:43:20.665Z,7.40
2019-04-26T22:45:50.816Z,7.45
2019-04-26T22:48:25.096Z,7.52
2019-04-26T22:50:52.076Z,7.56
2019-04-26T22:53:25.372Z,7.51
2019-04-26T22:55:53.540Z,7.50
2019-04-26T22:58:25.590Z,7.48
2019-04-26T23:00:53.727Z,7.48
2019-04-26T23:03:24.020Z,7.53
2019-04-26T23:05:53.727Z,7.52
2019-04-26T23:08:23.657Z,7.57
2019-04-26T23:10:53.908Z,7.58
2019-04-26T23:13:24.021Z,7.53
2019-04-26T23:16:11.443Z,7.38
2019-04-26T23:18:56.533Z,7.23
2019-04-26T23:21:35.781Z,7.22
2019-04-26T23:24:04.422Z,7.26
2019-04-26T23:26:33.478Z,7.32
2019-04-26T23:29:03.750Z,7.32
2019-04-26T23:31:33.480Z,7.36
2019-04-26T23:34:02.974Z,7.36
2019-04-26T23:36:31.503Z,7.32
2019-04-26T23:39:00.085Z,7.28
2019-04-26T23:41:28.570Z,7.23
2019-04-26T23:44:02.909Z,7.23
2019-04-26T23:46:27.298Z,7.23
2019-04-26T23:48:56.015Z,7.27
2019-04-26T23:51:26.220Z,7.28
2019-04-26T23:53:57.646Z,7.21
2019-04-26T23:56:25.450Z,7.22
2019-04-26T23:58:54.090Z,7.15
